Home > Products > Valid Products > FWO

000
SHUS65 KGJT 022022
FWOGJT

DAILY FIRE WEATHER OBSERVATION
NATIONAL WEATHER SERVICE GRAND JUNCTION CO
222 PM MDT TUE SEP 2 2014

STATE OF THE WEATHER (W)               0
DRY BULB TEMPERATURE                   84   DEGREES FAHRENHEIT
RELATIVE HUMIDITY (RH)                 19   PERCENT
LIGHTNING ACTIVITY LEVEL
  (LAL - MIDNIGHT TO 2 PM)             1
WIND DIRECTION                         C    DEGREES (C IF CALM)
WIND SPEED                             0    MPH
MAX TEMP (2 PM - 2 PM)                 85   DEGREES FAHRENHEIT
MIN TEMP (2 PM - 2 PM)                 53   DEGREES FAHRENHEIT
MAX RH (2 PM - 2 PM)                   59   PERCENT
MIN RH (2 PM - 2 PM)                   16   PERCENT
PCPN DURATION                          0.0  HOURS
PCPN AMT (2 PM - 2 PM)                 0.0  INCHES
LAL (2 PM - 2 PM)                      1

$$

METAR KGJT 021953Z VRB03KT 10SM CLR 29/03 A3004 RMK AO2 SLP108
      T02890033





000
SHUS65 KGJT 022022
FWOGJT

DAILY FIRE WEATHER OBSERVATION
NATIONAL WEATHER SERVICE GRAND JUNCTION CO
222 PM MDT TUE SEP 2 2014

STATE OF THE WEATHER (W)               0
DRY BULB TEMPERATURE                   84   DEGREES FAHRENHEIT
RELATIVE HUMIDITY (RH)                 19   PERCENT
LIGHTNING ACTIVITY LEVEL
  (LAL - MIDNIGHT TO 2 PM)             1
WIND DIRECTION                         C    DEGREES (C IF CALM)
WIND SPEED                             0    MPH
MAX TEMP (2 PM - 2 PM)                 85   DEGREES FAHRENHEIT
MIN TEMP (2 PM - 2 PM)                 53   DEGREES FAHRENHEIT
MAX RH (2 PM - 2 PM)                   59   PERCENT
MIN RH (2 PM - 2 PM)                   16   PERCENT
PCPN DURATION                          0.0  HOURS
PCPN AMT (2 PM - 2 PM)                 0.0  INCHES
LAL (2 PM - 2 PM)                      1

$$

METAR KGJT 021953Z VRB03KT 10SM CLR 29/03 A3004 RMK AO2 SLP108
      T02890033




000
SHUS65 KGJT 012014
FWOGJT

DAILY FIRE WEATHER OBSERVATION
NATIONAL WEATHER SERVICE GRAND JUNCTION CO
212 PM MDT MON SEP 1 2014

STATE OF THE WEATHER (W)               1
DRY BULB TEMPERATURE                   81   DEGREES FAHRENHEIT
RELATIVE HUMIDITY (RH)                 21   PERCENT
LIGHTNING ACTIVITY LEVEL
  (LAL - MIDNIGHT TO 2 PM)             1
WIND DIRECTION                         270  DEGREES (C IF CALM)
WIND SPEED                             7    MPH
MAX TEMP (2 PM - 2 PM)                 87   DEGREES FAHRENHEIT
MIN TEMP (2 PM - 2 PM)                 49   DEGREES FAHRENHEIT
MAX RH (2 PM - 2 PM)                   71   PERCENT
MIN RH (2 PM - 2 PM)                   13   PERCENT
PCPN DURATION                          0.0  HOURS
PCPN AMT (2 PM - 2 PM)                 0.0  INCHES
LAL (2 PM - 2 PM)                      1

$$

METAR KGJT 011953Z 27006KT 10SM CLR 27/03 A3004 RMK AO2 SLP113
      T02720028





000
SHUS65 KGJT 012014
FWOGJT

DAILY FIRE WEATHER OBSERVATION
NATIONAL WEATHER SERVICE GRAND JUNCTION CO
212 PM MDT MON SEP 1 2014

STATE OF THE WEATHER (W)               1
DRY BULB TEMPERATURE                   81   DEGREES FAHRENHEIT
RELATIVE HUMIDITY (RH)                 21   PERCENT
LIGHTNING ACTIVITY LEVEL
  (LAL - MIDNIGHT TO 2 PM)             1
WIND DIRECTION                         270  DEGREES (C IF CALM)
WIND SPEED                             7    MPH
MAX TEMP (2 PM - 2 PM)                 87   DEGREES FAHRENHEIT
MIN TEMP (2 PM - 2 PM)                 49   DEGREES FAHRENHEIT
MAX RH (2 PM - 2 PM)                   71   PERCENT
MIN RH (2 PM - 2 PM)                   13   PERCENT
PCPN DURATION                          0.0  HOURS
PCPN AMT (2 PM - 2 PM)                 0.0  INCHES
LAL (2 PM - 2 PM)                      1

$$

METAR KGJT 011953Z 27006KT 10SM CLR 27/03 A3004 RMK AO2 SLP113
      T02720028




000
SHUS65 KGJT 312018
FWOGJT

DAILY FIRE WEATHER OBSERVATION
NATIONAL WEATHER SERVICE GRAND JUNCTION CO
212 PM MDT SUN AUG 31 2014

STATE OF THE WEATHER (W)               1
DRY BULB TEMPERATURE                   87   DEGREES FAHRENHEIT
RELATIVE HUMIDITY (RH)                 13   PERCENT
LIGHTNING ACTIVITY LEVEL
  (LAL - MIDNIGHT TO 2 PM)             1
WIND DIRECTION                         270  DEGREES (C IF CALM)
WIND SPEED                             25   MPH
MAX TEMP (2 PM - 2 PM)                 87   DEGREES FAHRENHEIT
MIN TEMP (2 PM - 2 PM)                 60   DEGREES FAHRENHEIT
MAX RH (2 PM - 2 PM)                   63   PERCENT
MIN RH (2 PM - 2 PM)                   13   PERCENT
PCPN DURATION                          0.0  HOURS
PCPN AMT (2 PM - 2 PM)                 0.0  INCHES
LAL (2 PM - 2 PM)                      2

$$

METAR KGJT 311953Z 26022G30KT 10SM CLR 31/M01 A2990 RMK AO2 PK
      WND 24031/1919 SLP047 T03061011




000
SHUS65 KGJT 312018
FWOGJT

DAILY FIRE WEATHER OBSERVATION
NATIONAL WEATHER SERVICE GRAND JUNCTION CO
212 PM MDT SUN AUG 31 2014

STATE OF THE WEATHER (W)               1
DRY BULB TEMPERATURE                   87   DEGREES FAHRENHEIT
RELATIVE HUMIDITY (RH)                 13   PERCENT
LIGHTNING ACTIVITY LEVEL
  (LAL - MIDNIGHT TO 2 PM)             1
WIND DIRECTION                         270  DEGREES (C IF CALM)
WIND SPEED                             25   MPH
MAX TEMP (2 PM - 2 PM)                 87   DEGREES FAHRENHEIT
MIN TEMP (2 PM - 2 PM)                 60   DEGREES FAHRENHEIT
MAX RH (2 PM - 2 PM)                   63   PERCENT
MIN RH (2 PM - 2 PM)                   13   PERCENT
PCPN DURATION                          0.0  HOURS
PCPN AMT (2 PM - 2 PM)                 0.0  INCHES
LAL (2 PM - 2 PM)                      2

$$

METAR KGJT 311953Z 26022G30KT 10SM CLR 31/M01 A2990 RMK AO2 PK
      WND 24031/1919 SLP047 T03061011





    US Dept of Commerce
    National Oceanic and Atmospheric Administration
    National Weather Service
    1325 East West Highway
    Silver Spring, MD 20910
    Page Author: NWS Internet Services Team
Disclaimer
Information Quality
Credits
Glossary
Privacy Policy
Freedom of Information Act (FOIA)
About Us
Career Opportunities